createdAt,value
2019-01-12T00:03:42.969Z,99.86
2019-01-12T00:09:01.536Z,99.96
2019-01-12T00:14:20.641Z,99.96
2019-01-12T00:19:39.283Z,99.70
2019-01-12T00:24:57.884Z,99.60
2019-01-12T00:30:16.525Z,99.40
2019-01-12T00:35:35.162Z,99.20
2019-01-12T00:40:54.091Z,98.99
2019-01-12T00:46:12.665Z,98.88
2019-01-12T00:51:31.488Z,98.57
2019-01-12T00:56:50.045Z,98.59
2019-01-12T01:02:08.740Z,98.60
2019-01-12T01:07:27.367Z,98.93
2019-01-12T01:12:46.009Z,98.78
2019-01-12T01:18:05.137Z,98.71
2019-01-12T01:23:23.944Z,98.87
2019-01-12T01:28:42.607Z,98.87
2019-01-12T01:34:01.230Z,98.63
2019-01-12T01:39:20.540Z,98.63
2019-01-12T01:44:39.298Z,98.39
2019-01-12T01:49:57.951Z,98.36
2019-01-12T01:55:16.633Z,98.49
2019-01-12T02:00:35.237Z,98.33
2019-01-12T02:05:53.933Z,97.95
2019-01-12T02:11:12.502Z,98.20
2019-01-12T02:16:31.134Z,98.26
2019-01-12T02:21:49.801Z,98.52
2019-01-12T02:27:08.429Z,98.50
2019-01-12T02:32:27.047Z,98.43
2019-01-12T02:37:45.675Z,98.54
2019-01-12T02:43:04.776Z,98.78
2019-01-12T02:48:23.379Z,98.82
2019-01-12T02:53:42.037Z,98.73
2019-01-12T02:59:00.758Z,98.70
2019-01-12T03:04:19.401Z,98.56
2019-01-12T03:09:37.981Z,98.54
2019-01-12T03:14:56.529Z,98.55
2019-01-12T03:20:16.105Z,98.64
2019-01-12T03:25:34.704Z,98.63
2019-01-12T03:30:53.278Z,98.48
2019-01-12T03:36:12.086Z,98.17
2019-01-12T03:41:30.973Z,98.12
2019-01-12T03:46:49.597Z,97.97
2019-01-12T03:52:08.217Z,97.95
2019-01-12T03:57:27.259Z,97.89
2019-01-12T04:02:45.816Z,97.79
2019-01-12T04:08:04.571Z,97.66
2019-01-12T04:13:23.198Z,97.49
2019-01-12T04:18:41.776Z,97.50
2019-01-12T04:24:00.339Z,97.57
2019-01-12T04:29:18.962Z,97.81
2019-01-12T04:34:37.449Z,98.08
2019-01-12T04:39:56.093Z,98.16
2019-01-12T04:45:16.009Z,98.12
2019-01-12T04:50:34.933Z,97.87
2019-01-12T04:55:53.678Z,97.64
2019-01-12T05:01:12.325Z,97.68
2019-01-12T05:06:31.565Z,97.53
2019-01-12T05:11:50.208Z,97.67
2019-01-12T05:17:08.757Z,97.68
2019-01-12T05:22:27.399Z,97.19
2019-01-12T05:27:46.062Z,97.10
2019-01-12T05:33:04.687Z,96.90
2019-01-12T05:38:23.324Z,96.57
2019-01-12T05:43:42.058Z,96.75
2019-01-12T05:49:00.839Z,96.53
2019-01-12T05:54:19.448Z,96.26
2019-01-12T05:59:38.031Z,96.12
2019-01-12T06:04:56.760Z,95.76
2019-01-12T06:10:15.474Z,95.76
2019-01-12T06:15:34.113Z,95.91
2019-01-12T06:20:54.509Z,96.05
2019-01-12T06:26:13.289Z,95.80
2019-01-12T06:31:32.312Z,95.76
2019-01-12T06:36:51.087Z,95.48
2019-01-12T06:42:09.834Z,95.37
2019-01-12T06:47:28.359Z,94.24
2019-01-12T06:52:46.992Z,94.00
2019-01-12T06:58:05.748Z,93.91
2019-01-12T07:03:24.319Z,94.03
2019-01-12T07:08:42.955Z,94.18
2019-01-12T07:14:01.834Z,94.54
2019-01-12T07:19:20.416Z,94.54
2019-01-12T07:24:39.050Z,94.87
2019-01-12T07:29:57.557Z,94.63
2019-01-12T07:35:16.218Z,94.71
2019-01-12T07:40:34.872Z,94.79
2019-01-12T07:45:53.767Z,94.59
2019-01-12T07:51:12.393Z,94.85
2019-01-12T07:56:31.014Z,94.92
2019-01-12T08:01:49.577Z,94.57
2019-01-12T08:07:08.195Z,94.73
2019-01-12T08:12:26.843Z,94.72
2019-01-12T08:17:45.480Z,95.00
2019-01-12T08:23:04.062Z,94.80
2019-01-12T08:28:22.714Z,94.59
2019-01-12T08:33:41.551Z,93.69
2019-01-12T08:39:00.140Z,93.11
2019-01-12T08:44:18.719Z,93.31
2019-01-12T08:49:37.417Z,92.95
2019-01-12T08:54:55.924Z,93.18
2019-01-12T09:00:19.009Z,93.17
2019-01-12T09:05:37.580Z,92.99
2019-01-12T09:10:56.207Z,92.46
2019-01-12T09:16:14.940Z,92.55
2019-01-12T09:21:33.519Z,92.32
2019-01-12T09:26:52.172Z,92.84
2019-01-12T09:32:10.819Z,92.89
2019-01-12T09:37:29.583Z,93.44
2019-01-12T09:42:48.208Z,93.08
2019-01-12T09:48:06.852Z,93.01
2019-01-12T09:53:25.650Z,92.56
2019-01-12T09:58:44.385Z,92.03
2019-01-12T10:04:03.265Z,91.34
2019-01-12T10:09:21.899Z,90.87
2019-01-12T10:14:40.621Z,90.81
2019-01-12T10:19:59.823Z,90.97
2019-01-12T10:25:18.466Z,90.65
2019-01-12T10:30:37.180Z,90.81
2019-01-12T10:35:55.890Z,90.56
2019-01-12T10:41:14.567Z,89.88
2019-01-12T10:46:33.226Z,90.28
2019-01-12T10:51:51.817Z,90.32
2019-01-12T10:57:10.488Z,90.42
2019-01-12T11:02:29.147Z,91.07
2019-01-12T11:07:47.746Z,91.11
2019-01-12T11:13:06.411Z,92.45
2019-01-12T11:18:25.165Z,93.84
2019-01-12T11:23:43.780Z,95.04
2019-01-12T11:29:02.442Z,95.52
2019-01-12T11:34:21.085Z,96.35
2019-01-12T11:39:40.283Z,96.64
2019-01-12T11:44:58.844Z,97.03
2019-01-12T11:50:17.665Z,96.87
2019-01-12T11:55:36.612Z,96.32
2019-01-12T12:00:55.258Z,96.39
2019-01-12T12:06:13.875Z,96.82
2019-01-12T12:11:32.464Z,96.75
2019-01-12T12:16:51.391Z,97.10
2019-01-12T12:22:10.072Z,97.01
2019-01-12T12:27:28.877Z,96.97
2019-01-12T12:32:47.524Z,97.07
2019-01-12T12:38:06.142Z,97.56
2019-01-12T12:43:24.783Z,97.61
2019-01-12T12:48:43.439Z,97.72
2019-01-12T12:54:01.995Z,97.54
2019-01-12T12:59:20.627Z,97.59
2019-01-12T13:04:39.182Z,97.52
2019-01-12T13:09:57.827Z,97.27
2019-01-12T13:15:16.855Z,97.47
2019-01-12T13:20:35.510Z,97.44
2019-01-12T13:25:54.234Z,97.78
2019-01-12T13:31:12.786Z,97.98
2019-01-12T13:36:31.403Z,97.99
2019-01-12T13:41:50.137Z,98.24
2019-01-12T13:47:08.797Z,98.31
2019-01-12T13:52:27.430Z,98.42
2019-01-12T13:57:47.902Z,98.24
2019-01-12T14:03:06.626Z,98.07
2019-01-12T14:08:25.448Z,98.23
2019-01-12T14:13:43.954Z,98.08
2019-01-12T14:19:02.588Z,97.96
2019-01-12T14:24:21.278Z,98.08
2019-01-12T14:29:39.954Z,98.12
2019-01-12T14:34:59.457Z,97.94
2019-01-12T14:40:19.860Z,97.88
2019-01-12T14:45:39.943Z,97.93
2019-01-12T14:50:58.602Z,98.12
2019-01-12T14:56:19.741Z,98.31
2019-01-12T15:01:39.888Z,98.13
2019-01-12T15:06:58.697Z,98.09
2019-01-12T15:12:19.516Z,97.83
2019-01-12T15:17:43.556Z,97.80
2019-01-12T15:23:03.646Z,97.91
2019-01-12T15:28:22.346Z,98.19
2019-01-12T15:33:41.525Z,98.33
2019-01-12T15:39:01.732Z,98.67
2019-01-12T15:44:23.099Z,98.61
2019-01-12T15:49:41.736Z,98.88
2019-01-12T15:55:00.265Z,98.62
2019-01-12T16:00:21.419Z,98.54
2019-01-12T16:05:40.062Z,98.67
2019-01-12T16:11:00.202Z,98.74
2019-01-12T16:16:19.002Z,98.49
2019-01-12T16:21:38.084Z,98.39
2019-01-12T16:26:56.715Z,98.29
2019-01-12T16:32:15.377Z,98.22
2019-01-12T16:37:34.077Z,98.17
2019-01-12T16:42:53.004Z,97.97
2019-01-12T16:48:12.295Z,98.17
2019-01-12T16:53:30.860Z,97.81
2019-01-12T16:58:52.310Z,97.88
2019-01-12T17:04:12.060Z,98.00
2019-01-12T17:09:30.799Z,98.03
2019-01-12T17:14:49.503Z,97.99
2019-01-12T17:20:11.084Z,97.99
2019-01-12T17:25:29.780Z,97.51
2019-01-12T17:30:48.631Z,97.19
2019-01-12T17:36:07.258Z,97.41
2019-01-12T17:41:25.874Z,97.04
2019-01-12T17:46:44.536Z,96.96
2019-01-12T17:52:05.752Z,96.77
2019-01-12T17:57:24.802Z,96.86
2019-01-12T18:02:43.418Z,96.70
2019-01-12T18:08:02.070Z,97.20
2019-01-12T18:13:20.736Z,96.48
2019-01-12T18:18:39.363Z,96.03
2019-01-12T18:23:57.983Z,96.48
2019-01-12T18:29:16.735Z,95.50
2019-01-12T18:34:35.444Z,95.65
2019-01-12T18:39:54.006Z,96.22
2019-01-12T18:45:17.365Z,96.40
2019-01-12T18:50:36.023Z,96.16
2019-01-12T18:55:54.623Z,95.96
2019-01-12T19:01:13.398Z,95.85
2019-01-12T19:06:31.924Z,95.76
2019-01-12T19:11:50.489Z,96.07
2019-01-12T19:17:09.110Z,95.93
2019-01-12T19:22:27.736Z,95.81
2019-01-12T19:27:46.497Z,96.00
2019-01-12T19:33:05.150Z,96.01
2019-01-12T19:38:23.822Z,95.99
2019-01-12T19:43:42.429Z,96.01
2019-01-12T19:49:01.066Z,96.28
2019-01-12T19:54:19.600Z,96.28
2019-01-12T19:59:38.225Z,96.19
2019-01-12T20:04:56.832Z,96.05
2019-01-12T20:10:17.087Z,96.07
2019-01-12T20:15:35.676Z,96.19
2019-01-12T20:20:54.345Z,95.98
2019-01-12T20:26:12.839Z,94.80
2019-01-12T20:31:53.840Z,95.70
2019-01-12T20:37:44.191Z,96.43
2019-01-12T20:43:17.610Z,97.28
2019-01-12T20:48:43.729Z,96.97
2019-01-12T20:54:23.421Z,97.29
2019-01-12T21:00:03.003Z,96.81
2019-01-12T21:05:24.720Z,96.85
2019-01-12T21:11:02.707Z,96.56
2019-01-12T21:16:25.024Z,96.38
2019-01-12T21:21:43.836Z,96.23
2019-01-12T21:27:02.738Z,95.93
2019-01-12T21:32:24.274Z,95.86
2019-01-12T21:37:43.113Z,96.40
2019-01-12T21:43:01.952Z,96.97
2019-01-12T21:48:23.646Z,97.60
2019-01-12T21:53:42.303Z,97.67
2019-01-12T21:59:05.584Z,97.31
2019-01-12T22:04:24.618Z,97.31
2019-01-12T22:09:43.421Z,97.33
2019-01-12T22:15:02.044Z,97.38
2019-01-12T22:20:21.071Z,97.07
2019-01-12T22:25:40.650Z,97.10
2019-01-12T22:30:59.359Z,97.03
2019-01-12T22:36:18.178Z,97.06
2019-01-12T22:41:37.133Z,97.16
2019-01-12T22:46:55.771Z,96.82
2019-01-12T22:52:14.507Z,97.04
2019-01-12T22:57:33.059Z,97.01
2019-01-12T23:02:51.750Z,97.25
2019-01-12T23:08:10.656Z,97.37
2019-01-12T23:13:29.929Z,97.37
2019-01-12T23:18:49.314Z,97.58
2019-01-12T23:24:07.867Z,97.40
2019-01-12T23:29:26.571Z,97.65
2019-01-12T23:34:45.310Z,97.45
2019-01-12T23:40:05.132Z,97.55
2019-01-12T23:45:23.765Z,97.53
2019-01-12T23:50:42.516Z,97.00
2019-01-12T23:56:01.229Z,97.22
